sensor_id;sensor_type;location;lat;lon;timestamp;pressure;altitude;pressure_sealevel;temperature;humidity
75938;BME280;64615;32.062;34.834;2024-03-02T00:00:02;100484.75;;;22.78;32.40
75938;BME280;64615;32.062;34.834;2024-03-02T00:02:43;100482.31;;;22.76;32.42
75938;BME280;64615;32.062;34.834;2024-03-02T00:05:14;100478.78;;;22.76;32.39
75938;BME280;64615;32.062;34.834;2024-03-02T00:07:44;100478.78;;;22.76;32.58
75938;BME280;64615;32.062;34.834;2024-03-02T00:10:12;100482.03;;;22.78;32.40
75938;BME280;64615;32.062;34.834;2024-03-02T00:12:40;100476.59;;;22.78;32.88
75938;BME280;64615;32.062;34.834;2024-03-02T00:17:55;100474.44;;;22.75;32.44
75938;BME280;64615;32.062;34.834;2024-03-02T00:20:24;100474.97;;;22.77;32.68
75938;BME280;64615;32.062;34.834;2024-03-02T00:23:00;100472.53;;;22.75;32.58
75938;BME280;64615;32.062;34.834;2024-03-02T00:25:38;100471.72;;;22.75;32.79
75938;BME280;64615;32.062;34.834;2024-03-02T00:28:05;100464.09;;;22.77;32.72
75938;BME280;64615;32.062;34.834;2024-03-02T00:33:37;100457.31;;;22.74;32.92
75938;BME280;64615;32.062;34.834;2024-03-02T00:36:06;100454.34;;;22.76;32.94
75938;BME280;64615;32.062;34.834;2024-03-02T00:38:33;100466.28;;;22.75;33.12
75938;BME280;64615;32.062;34.834;2024-03-02T00:41:03;100473.34;;;22.76;33.05
75938;BME280;64615;32.062;34.834;2024-03-02T00:46:22;100470.88;;;22.74;32.98
75938;BME280;64615;32.062;34.834;2024-03-02T00:48:58;100464.66;;;22.74;33.02
75938;BME280;64615;32.062;34.834;2024-03-02T00:51:25;100471.44;;;22.71;33.34
75938;BME280;64615;32.062;34.834;2024-03-02T00:53:52;100475.19;;;22.70;33.10
75938;BME280;64615;32.062;34.834;2024-03-02T00:56:21;100475.44;;;22.69;33.13
75938;BME280;64615;32.062;34.834;2024-03-02T00:58:48;100461.88;;;22.69;33.32
75938;BME280;64615;32.062;34.834;2024-03-02T01:01:13;100464.03;;;22.67;33.26
75938;BME280;64615;32.062;34.834;2024-03-02T01:03:40;100467.03;;;22.65;33.48
75938;BME280;64615;32.062;34.834;2024-03-02T01:06:07;100466.22;;;22.65;33.56
75938;BME280;64615;32.062;34.834;2024-03-02T01:08:34;100467.28;;;22.64;33.39
75938;BME280;64615;32.062;34.834;2024-03-02T01:10:59;100468.34;;;22.63;33.64
75938;BME280;64615;32.062;34.834;2024-03-02T01:13:25;100458.59;;;22.62;33.58
75938;BME280;64615;32.062;34.834;2024-03-02T01:15:51;100457.75;;;22.61;33.77
75938;BME280;64615;32.062;34.834;2024-03-02T01:18:17;100458.59;;;22.62;33.59
75938;BME280;64615;32.062;34.834;2024-03-02T01:20:42;100459.41;;;22.62;33.70
75938;BME280;64615;32.062;34.834;2024-03-02T01:23:08;100463.75;;;22.63;33.75
75938;BME280;64615;32.062;34.834;2024-03-02T01:25:34;100459.97;;;22.64;33.83
75938;BME280;64615;32.062;34.834;2024-03-02T01:28:00;100462.94;;;22.63;33.75
75938;BME280;64615;32.062;34.834;2024-03-02T01:30:26;100464.81;;;22.62;33.80
75938;BME280;64615;32.062;34.834;2024-03-02T01:32:52;100451.53;;;22.61;33.75
75938;BME280;64615;32.062;34.834;2024-03-02T01:35:17;100458.88;;;22.60;33.67
75938;BME280;64615;32.062;34.834;2024-03-02T01:37:43;100453.69;;;22.59;33.75
75938;BME280;64615;32.062;34.834;2024-03-02T01:40:09;100448.28;;;22.59;33.24
75938;BME280;64615;32.062;34.834;2024-03-02T01:42:37;100438.75;;;22.56;33.65
75938;BME280;64615;32.062;34.834;2024-03-02T01:45:04;100438.75;;;22.56;33.39
75938;BME280;64615;32.062;34.834;2024-03-02T01:47:30;100436.03;;;22.56;33.07
75938;BME280;64615;32.062;34.834;2024-03-02T01:49:56;100439.84;;;22.55;33.64
75938;BME280;64615;32.062;34.834;2024-03-02T01:52:22;100443.38;;;22.56;33.99
75938;BME280;64615;32.062;34.834;2024-03-02T01:54:47;100448.00;;;22.55;33.56
75938;BME280;64615;32.062;34.834;2024-03-02T01:57:13;100449.06;;;22.54;33.38
75938;BME280;64615;32.062;34.834;2024-03-02T01:59:38;100450.97;;;22.54;33.51
75938;BME280;64615;32.062;34.834;2024-03-02T02:02:04;100450.97;;;22.54;33.68
75938;BME280;64615;32.062;34.834;2024-03-02T02:04:30;100456.94;;;22.56;34.12
75938;BME280;64615;32.062;34.834;2024-03-02T02:06:56;100465.09;;;22.56;34.19
75938;BME280;64615;32.062;34.834;2024-03-02T02:09:22;100457.75;;;22.56;34.00
75938;BME280;64615;32.062;34.834;2024-03-02T02:11:47;100463.72;;;22.58;34.14
75938;BME280;64615;32.062;34.834;2024-03-02T02:14:13;100461.28;;;22.62;34.49
75938;BME280;64615;32.062;34.834;2024-03-02T02:16:39;100467.00;;;22.60;34.80
75938;BME280;64615;32.062;34.834;2024-03-02T02:19:05;100460.75;;;22.60;34.50
75938;BME280;64615;32.062;34.834;2024-03-02T02:21:31;100460.75;;;22.60;34.31
75938;BME280;64615;32.062;34.834;2024-03-02T02:23:56;100462.41;;;22.61;34.30
75938;BME280;64615;32.062;34.834;2024-03-02T02:26:22;100465.38;;;22.59;34.29
75938;BME280;64615;32.062;34.834;2024-03-02T02:28:47;100462.41;;;22.61;34.24
75938;BME280;64615;32.062;34.834;2024-03-02T02:31:13;100471.88;;;22.63;34.56
75938;BME280;64615;32.062;34.834;2024-03-02T02:33:40;100471.63;;;22.65;34.67
75938;BME280;64615;32.062;34.834;2024-03-02T02:36:06;100470.00;;;22.64;34.62
75938;BME280;64615;32.062;34.834;2024-03-02T02:38:37;100468.09;;;22.64;34.54
75938;BME280;64615;32.062;34.834;2024-03-02T02:41:04;100468.63;;;22.61;34.45
75938;BME280;64615;32.062;34.834;2024-03-02T02:43:29;100470.81;;;22.64;34.75
75938;BME280;64615;32.062;34.834;2024-03-02T02:45:55;100467.28;;;22.64;34.87
75938;BME280;64615;32.062;34.834;2024-03-02T02:48:21;100472.16;;;22.67;34.82
75938;BME280;64615;32.062;34.834;2024-03-02T02:50:46;100477.34;;;22.68;34.86
75938;BME280;64615;32.062;34.834;2024-03-02T02:53:12;100475.69;;;22.62;34.61
75938;BME280;64615;32.062;34.834;2024-03-02T02:55:39;100476.22;;;22.59;34.53
75938;BME280;64615;32.062;34.834;2024-03-02T02:58:12;100475.13;;;22.55;34.16
75938;BME280;64615;32.062;34.834;2024-03-02T03:00:38;100472.41;;;22.55;34.62
75938;BME280;64615;32.062;34.834;2024-03-02T03:03:04;100469.69;;;22.55;34.73
75938;BME280;64615;32.062;34.834;2024-03-02T03:05:30;100473.22;;;22.56;34.73
75938;BME280;64615;32.062;34.834;2024-03-02T03:07:55;100477.00;;;22.55;35.01
75938;BME280;64615;32.062;34.834;2024-03-02T03:10:21;100476.44;;;22.53;35.02
75938;BME280;64615;32.062;34.834;2024-03-02T03:12:48;100473.75;;;22.53;35.13
75938;BME280;64615;32.062;34.834;2024-03-02T03:15:14;100476.44;;;22.53;35.29
75938;BME280;64615;32.062;34.834;2024-03-02T03:17:41;100469.38;;;22.52;35.16
75938;BME280;64615;32.062;34.834;2024-03-02T03:20:07;100463.16;;;22.51;35.16
75938;BME280;64615;32.062;34.834;2024-03-02T03:22:36;100472.38;;;22.50;34.97
75938;BME280;64615;32.062;34.834;2024-03-02T03:25:02;100465.31;;;22.49;34.65
75938;BME280;64615;32.062;34.834;2024-03-02T03:27:29;100463.69;;;22.48;34.83
75938;BME280;64615;32.062;34.834;2024-03-02T03:29:55;100458.28;;;22.53;34.55
75938;BME280;64615;32.062;34.834;2024-03-02T03:32:20;100454.19;;;22.51;35.38
75938;BME280;64615;32.062;34.834;2024-03-02T03:34:46;100458.00;;;22.50;35.14
75938;BME280;64615;32.062;34.834;2024-03-02T03:37:14;100458.25;;;22.48;35.29
75938;BME280;64615;32.062;34.834;2024-03-02T03:39:39;100460.16;;;22.48;35.33
75938;BME280;64615;32.062;34.834;2024-03-02T03:42:05;100459.34;;;22.47;34.92
75938;BME280;64615;32.062;34.834;2024-03-02T03:44:31;100463.94;;;22.47;34.57
75938;BME280;64615;32.062;34.834;2024-03-02T03:46:57;100469.38;;;22.47;34.46
75938;BME280;64615;32.062;34.834;2024-03-02T03:49:23;100458.50;;;22.47;35.19
75938;BME280;64615;32.062;34.834;2024-03-02T03:51:48;100470.19;;;22.47;35.54
75938;BME280;64615;32.062;34.834;2024-03-02T03:54:14;100463.69;;;22.48;35.06
75938;BME280;64615;32.062;34.834;2024-03-02T03:56:40;100467.75;;;22.51;36.33
75938;BME280;64615;32.062;34.834;2024-03-02T03:59:05;100464.78;;;22.52;36.44
75938;BME280;64615;32.062;34.834;2024-03-02T04:01:31;100466.41;;;22.53;37.21
75938;BME280;64615;32.062;34.834;2024-03-02T04:03:57;100462.38;;;22.56;37.27
75938;BME280;64615;32.062;34.834;2024-03-02T04:06:23;100462.66;;;22.59;37.15
75938;BME280;64615;32.062;34.834;2024-03-02T04:08:49;100469.47;;;22.67;36.84
75938;BME280;64615;32.062;34.834;2024-03-02T04:11:15;100474.34;;;22.65;36.10
75938;BME280;64615;32.062;34.834;2024-03-02T04:13:40;100472.97;;;22.62;36.56
75938;BME280;64615;32.062;34.834;2024-03-02T04:16:06;100466.72;;;22.62;36.98
75938;BME280;64615;32.062;34.834;2024-03-02T04:18:32;100474.03;;;22.61;37.14
75938;BME280;64615;32.062;34.834;2024-03-02T04:20:58;100469.19;;;22.63;35.94
75938;BME280;64615;32.062;34.834;2024-03-02T04:23:27;100472.47;;;22.65;36.71
75938;BME280;64615;32.062;34.834;2024-03-02T04:25:52;100471.09;;;22.68;35.55
75938;BME280;64615;32.062;34.834;2024-03-02T04:28:18;100467.06;;;22.70;35.96
75938;BME280;64615;32.062;34.834;2024-03-02T04:30:43;100481.75;;;22.74;36.16
75938;BME280;64615;32.062;34.834;2024-03-02T04:33:09;100477.41;;;22.78;35.93
75938;BME280;64615;32.062;34.834;2024-03-02T04:35:38;100479.88;;;22.80;36.03
75938;BME280;64615;32.062;34.834;2024-03-02T04:38:04;100476.34;;;22.85;35.69
75938;BME280;64615;32.062;34.834;2024-03-02T04:40:30;100481.00;;;22.89;35.78
75938;BME280;64615;32.062;34.834;2024-03-02T04:42:55;100476.94;;;22.92;35.44
75938;BME280;64615;32.062;34.834;2024-03-02T04:45:21;100475.84;;;22.93;35.56
75938;BME280;64615;32.062;34.834;2024-03-02T04:47:46;100473.69;;;22.95;35.42
75938;BME280;64615;32.062;34.834;2024-03-02T04:50:12;100476.16;;;23.01;35.37
75938;BME280;64615;32.062;34.834;2024-03-02T04:52:38;100478.31;;;23.04;35.60
75938;BME280;64615;32.062;34.834;2024-03-02T04:55:04;100472.06;;;23.04;36.21
75938;BME280;64615;32.062;34.834;2024-03-02T04:57:42;100475.09;;;23.12;35.70
75938;BME280;64615;32.062;34.834;2024-03-02T05:00:08;100476.19;;;23.16;35.87
75938;BME280;64615;32.062;34.834;2024-03-02T05:02:34;100482.97;;;23.19;35.61
75938;BME280;64615;32.062;34.834;2024-03-02T05:05:00;100482.19;;;23.23;35.66
75938;BME280;64615;32.062;34.834;2024-03-02T05:07:26;100480.81;;;23.26;35.44
75938;BME280;64615;32.062;34.834;2024-03-02T05:09:51;100478.13;;;23.31;35.18
75938;BME280;64615;32.062;34.834;2024-03-02T05:12:17;100478.69;;;23.38;35.23
75938;BME280;64615;32.062;34.834;2024-03-02T05:15:01;100491.75;;;23.46;35.35
75938;BME280;64615;32.062;34.834;2024-03-02T05:17:27;100485.00;;;23.54;35.42
75938;BME280;64615;32.062;34.834;2024-03-02T05:19:53;100492.59;;;23.57;35.67
75938;BME280;64615;32.062;34.834;2024-03-02T05:22:18;100496.69;;;23.64;36.20
75938;BME280;64615;32.062;34.834;2024-03-02T05:24:44;100506.19;;;23.72;35.65
75938;BME280;64615;32.062;34.834;2024-03-02T05:27:09;100504.03;;;23.79;35.94
75938;BME280;64615;32.062;34.834;2024-03-02T05:29:35;100508.38;;;23.85;35.29
75938;BME280;64615;32.062;34.834;2024-03-02T05:32:01;100519.53;;;23.94;35.24
75938;BME280;64615;32.062;34.834;2024-03-02T05:34:27;100523.06;;;24.25;34.81
75938;BME280;64615;32.062;34.834;2024-03-02T05:36:52;100524.16;;;24.44;33.32
75938;BME280;64615;32.062;34.834;2024-03-02T05:39:18;100529.56;;;24.59;32.06
75938;BME280;64615;32.062;34.834;2024-03-02T05:41:44;100534.44;;;24.62;31.34
75938;BME280;64615;32.062;34.834;2024-03-02T05:44:10;100535.81;;;24.49;30.53
75938;BME280;64615;32.062;34.834;2024-03-02T05:46:35;100541.53;;;24.53;30.14
75938;BME280;64615;32.062;34.834;2024-03-02T05:49:01;100533.88;;;24.60;29.79
75938;BME280;64615;32.062;34.834;2024-03-02T05:51:26;100530.59;;;24.68;29.82
75938;BME280;64615;32.062;34.834;2024-03-02T05:53:52;100531.16;;;24.75;29.27
75938;BME280;64615;32.062;34.834;2024-03-02T05:56:18;100530.31;;;24.80;29.80
75938;BME280;64615;32.062;34.834;2024-03-02T05:58:43;100538.16;;;24.86;30.14
75938;BME280;64615;32.062;34.834;2024-03-02T06:01:15;100543.34;;;24.93;30.22
75938;BME280;64615;32.062;34.834;2024-03-02T06:03:40;100546.31;;;24.97;29.98
75938;BME280;64615;32.062;34.834;2024-03-02T06:06:06;100540.59;;;25.03;29.83
75938;BME280;64615;32.062;34.834;2024-03-02T06:08:32;100542.47;;;25.08;30.12
75938;BME280;64615;32.062;34.834;2024-03-02T06:10:57;100545.75;;;25.10;29.95
75938;BME280;64615;32.062;34.834;2024-03-02T06:13:23;100543.84;;;25.10;30.48
75938;BME280;64615;32.062;34.834;2024-03-02T06:15:50;100547.63;;;25.14;30.21
75938;BME280;64615;32.062;34.834;2024-03-02T06:18:16;100545.41;;;25.21;30.30
75938;BME280;64615;32.062;34.834;2024-03-02T06:20:42;100546.72;;;25.29;30.19
75938;BME280;64615;32.062;34.834;2024-03-02T06:23:07;100550.53;;;25.33;30.59
75938;BME280;64615;32.062;34.834;2024-03-02T06:25:33;100555.41;;;25.36;30.83
75938;BME280;64615;32.062;34.834;2024-03-02T06:27:59;100553.25;;;25.38;30.82
75938;BME280;64615;32.062;34.834;2024-03-02T06:30:24;100554.03;;;25.39;30.90
75938;BME280;64615;32.062;34.834;2024-03-02T06:32:50;100557.03;;;25.42;31.00
75938;BME280;64615;32.062;34.834;2024-03-02T06:35:16;100561.38;;;25.43;31.13
75938;BME280;64615;32.062;34.834;2024-03-02T06:37:41;100562.72;;;25.46;31.41
75938;BME280;64615;32.062;34.834;2024-03-02T06:40:08;100566.53;;;25.45;30.91
75938;BME280;64615;32.062;34.834;2024-03-02T06:42:34;100568.16;;;25.46;31.17
75938;BME280;64615;32.062;34.834;2024-03-02T06:45:01;100568.44;;;25.44;30.88
75938;BME280;64615;32.062;34.834;2024-03-02T06:47:26;100570.66;;;25.42;31.10
75938;BME280;64615;32.062;34.834;2024-03-02T06:49:52;100578.81;;;25.42;31.06
75938;BME280;64615;32.062;34.834;2024-03-02T06:52:18;100579.91;;;25.41;31.33
75938;BME280;64615;32.062;34.834;2024-03-02T06:54:45;100575.31;;;25.37;31.10
75938;BME280;64615;32.062;34.834;2024-03-02T06:57:11;100574.75;;;25.35;31.22
75938;BME280;64615;32.062;34.834;2024-03-02T06:59:37;100584.84;;;25.34;31.60
75938;BME280;64615;32.062;34.834;2024-03-02T07:02:03;100595.50;;;25.30;31.38
75938;BME280;64615;32.062;34.834;2024-03-02T07:04:28;100594.94;;;25.28;31.75
75938;BME280;64615;32.062;34.834;2024-03-02T07:06:54;100606.44;;;25.25;31.29
75938;BME280;64615;32.062;34.834;2024-03-02T07:09:20;100599.09;;;25.21;31.54
75938;BME280;64615;32.062;34.834;2024-03-02T07:11:48;100606.72;;;25.19;31.52
75938;BME280;64615;32.062;34.834;2024-03-02T07:14:14;100605.91;;;25.13;31.65
75938;BME280;64615;32.062;34.834;2024-03-02T07:16:40;100622.81;;;25.10;31.67
75938;BME280;64615;32.062;34.834;2024-03-02T07:19:06;100604.59;;;25.06;32.15
75938;BME280;64615;32.062;34.834;2024-03-02T07:21:32;100612.78;;;24.96;32.36
75938;BME280;64615;32.062;34.834;2024-03-02T07:24:00;100608.97;;;24.92;32.33
75938;BME280;64615;32.062;34.834;2024-03-02T07:26:29;100620.44;;;24.88;32.87
75938;BME280;64615;32.062;34.834;2024-03-02T07:28:56;100616.88;;;24.83;32.92
75938;BME280;64615;32.062;34.834;2024-03-02T07:31:22;100611.69;;;24.76;32.89
75938;BME280;64615;32.062;34.834;2024-03-02T07:33:48;100626.97;;;24.72;33.09
75938;BME280;64615;32.062;34.834;2024-03-02T07:36:13;100624.81;;;24.69;32.78
75938;BME280;64615;32.062;34.834;2024-03-02T07:38:39;100630.25;;;24.64;33.09
75938;BME280;64615;32.062;34.834;2024-03-02T07:41:06;100622.91;;;24.60;32.94
75938;BME280;64615;32.062;34.834;2024-03-02T07:43:33;100616.91;;;24.58;32.87
75938;BME280;64615;32.062;34.834;2024-03-02T07:45:59;100620.97;;;24.55;33.11
75938;BME280;64615;32.062;34.834;2024-03-02T07:48:25;100620.72;;;24.52;33.33
75938;BME280;64615;32.062;34.834;2024-03-02T07:50:51;100620.47;;;24.48;33.53
75938;BME280;64615;32.062;34.834;2024-03-02T07:53:16;100633.50;;;24.46;33.52
75938;BME280;64615;32.062;34.834;2024-03-02T07:55:42;100638.44;;;24.44;33.13
75938;BME280;64615;32.062;34.834;2024-03-02T07:58:08;100636.50;;;24.39;33.44
75938;BME280;64615;32.062;34.834;2024-03-02T08:00:34;100646.84;;;24.37;33.26
75938;BME280;64615;32.062;34.834;2024-03-02T08:03:00;100638.97;;;24.36;33.40
75938;BME280;64615;32.062;34.834;2024-03-02T08:05:26;100654.72;;;24.34;33.45
75938;BME280;64615;32.062;34.834;2024-03-02T08:07:52;100640.59;;;24.32;33.33
75938;BME280;64615;32.062;34.834;2024-03-02T08:10:18;100650.94;;;24.30;33.48
75938;BME280;64615;32.062;34.834;2024-03-02T08:12:44;100665.91;;;24.27;33.56
75938;BME280;64615;32.062;34.834;2024-03-02T08:15:10;100658.00;;;24.26;33.43
75938;BME280;64615;32.062;34.834;2024-03-02T08:17:35;100665.59;;;24.19;33.90
75938;BME280;64615;32.062;34.834;2024-03-02T08:20:01;100663.13;;;24.12;33.78
75938;BME280;64615;32.062;34.834;2024-03-02T08:22:27;100667.19;;;24.15;34.04
75938;BME280;64615;32.062;34.834;2024-03-02T08:24:54;100666.72;;;24.18;34.99
75938;BME280;64615;32.062;34.834;2024-03-02T08:27:20;100687.34;;;24.19;34.95
75938;BME280;64615;32.062;34.834;2024-03-02T08:29:45;100664.00;;;24.18;35.03
75938;BME280;64615;32.062;34.834;2024-03-02T08:32:11;100676.78;;;24.17;36.02
75938;BME280;64615;32.062;34.834;2024-03-02T08:34:36;100679.50;;;24.17;35.65
75938;BME280;64615;32.062;34.834;2024-03-02T08:37:02;100670.47;;;24.17;36.01
75938;BME280;64615;32.062;34.834;2024-03-02T08:39:28;100682.22;;;24.17;35.73
75938;BME280;64615;32.062;34.834;2024-03-02T08:41:54;100674.28;;;24.16;36.18
75938;BME280;64615;32.062;34.834;2024-03-02T08:44:20;100667.47;;;24.13;36.26
75938;BME280;64615;32.062;34.834;2024-03-02T08:46:46;100666.94;;;24.11;36.10
75938;BME280;64615;32.062;34.834;2024-03-02T08:49:12;100671.56;;;24.11;36.44
75938;BME280;64615;32.062;34.834;2024-03-02T08:51:38;100674.53;;;24.09;36.57
75938;BME280;64615;32.062;34.834;2024-03-02T08:54:03;100671.00;;;24.08;36.81
75938;BME280;64615;32.062;34.834;2024-03-02T08:56:30;100674.78;;;24.07;37.01
75938;BME280;64615;32.062;34.834;2024-03-02T08:58:56;100672.38;;;24.06;36.96
75938;BME280;64615;32.062;34.834;2024-03-02T09:01:22;100676.97;;;24.05;37.47
75938;BME280;64615;32.062;34.834;2024-03-02T09:03:48;100673.69;;;24.03;37.52
75938;BME280;64615;32.062;34.834;2024-03-02T09:06:17;100682.94;;;24.02;37.86
75938;BME280;64615;32.062;34.834;2024-03-02T09:08:43;100693.28;;;24.00;37.93
75938;BME280;64615;32.062;34.834;2024-03-02T09:11:09;100668.00;;;24.00;38.03
75938;BME280;64615;32.062;34.834;2024-03-02T09:13:36;100676.97;;;24.00;38.49
75938;BME280;64615;32.062;34.834;2024-03-02T09:16:03;100676.97;;;24.00;39.02
75938;BME280;64615;32.062;34.834;2024-03-02T09:18:29;100672.34;;;24.01;38.69
75938;BME280;64615;32.062;34.834;2024-03-02T09:20:55;100682.16;;;24.02;38.92
75938;BME280;64615;32.062;34.834;2024-03-02T09:23:21;100687.59;;;24.07;40.30
75938;BME280;64615;32.062;34.834;2024-03-02T09:25:46;100678.63;;;24.12;40.62
75938;BME280;64615;32.062;34.834;2024-03-02T09:28:12;100687.94;;;24.36;41.46
75938;BME280;64615;32.062;34.834;2024-03-02T09:30:37;100690.13;;;24.44;41.41
75938;BME280;64615;32.062;34.834;2024-03-02T09:33:03;100681.69;;;24.40;42.29
75938;BME280;64615;32.062;34.834;2024-03-02T09:35:29;100678.44;;;24.48;42.09
75938;BME280;64615;32.062;34.834;2024-03-02T09:37:55;100622.63;;;24.31;40.86
75938;BME280;64615;32.062;34.834;2024-03-02T09:40:24;100642.72;;;24.15;41.12
75938;BME280;64615;32.062;34.834;2024-03-02T09:42:50;100652.78;;;24.09;41.04
75938;BME280;64615;32.062;34.834;2024-03-02T09:45:24;100644.34;;;24.11;41.60
75938;BME280;64615;32.062;34.834;2024-03-02T09:47:49;100634.00;;;24.07;41.66
75938;BME280;64615;32.062;34.834;2024-03-02T09:50:16;100630.50;;;24.07;41.76
75938;BME280;64615;32.062;34.834;2024-03-02T09:52:48;100651.41;;;24.01;42.48
75938;BME280;64615;32.062;34.834;2024-03-02T09:55:15;100626.63;;;23.93;43.45
75938;BME280;64615;32.062;34.834;2024-03-02T09:57:42;100644.03;;;23.92;43.21
75938;BME280;64615;32.062;34.834;2024-03-02T10:00:08;100654.38;;;23.90;42.42
75938;BME280;64615;32.062;34.834;2024-03-02T10:02:34;100638.59;;;23.92;42.97
75938;BME280;64615;32.062;34.834;2024-03-02T10:05:00;100632.06;;;23.93;42.50
75938;BME280;64615;32.062;34.834;2024-03-02T10:07:25;100638.88;;;23.90;41.84
75938;BME280;64615;32.062;34.834;2024-03-02T10:09:51;100642.13;;;23.92;42.13
75938;BME280;64615;32.062;34.834;2024-03-02T10:12:19;100629.06;;;23.79;42.79
75938;BME280;64615;32.062;34.834;2024-03-02T10:14:45;100640.72;;;23.64;43.06
75938;BME280;64615;32.062;34.834;2024-03-02T10:17:14;100633.09;;;23.67;42.97
75938;BME280;64615;32.062;34.834;2024-03-02T10:19:41;100628.47;;;23.67;42.63
75938;BME280;64615;32.062;34.834;2024-03-02T10:22:08;100626.31;;;23.69;42.47
75938;BME280;64615;32.062;34.834;2024-03-02T10:24:43;100628.78;;;23.71;42.61
75938;BME280;64615;32.062;34.834;2024-03-02T10:27:17;100640.44;;;23.71;42.43
75938;BME280;64615;32.062;34.834;2024-03-02T10:29:46;100627.69;;;23.72;42.42
75938;BME280;64615;32.062;34.834;2024-03-02T10:32:12;100630.41;;;23.72;42.49
75938;BME280;64615;32.062;34.834;2024-03-02T10:34:40;100635.56;;;23.73;42.41
75938;BME280;64615;32.062;34.834;2024-03-02T10:37:06;100634.22;;;23.71;42.48
75938;BME280;64615;32.062;34.834;2024-03-02T10:39:35;100643.47;;;23.70;42.36
75938;BME280;64615;32.062;34.834;2024-03-02T10:42:03;100654.59;;;23.68;42.35
75938;BME280;64615;32.062;34.834;2024-03-02T10:44:30;100656.47;;;23.68;42.47
75938;BME280;64615;32.062;34.834;2024-03-02T10:46:56;100655.66;;;23.67;42.72
75938;BME280;64615;32.062;34.834;2024-03-02T10:49:23;100642.06;;;23.67;42.61
75938;BME280;64615;32.062;34.834;2024-03-02T10:51:49;100633.91;;;23.67;42.28
75938;BME280;64615;32.062;34.834;2024-03-02T10:54:15;100637.72;;;23.66;42.34
75938;BME280;64615;32.062;34.834;2024-03-02T10:56:42;100632.03;;;23.68;42.32
75938;BME280;64615;32.062;34.834;2024-03-02T10:59:33;100630.38;;;23.67;42.38
75938;BME280;64615;32.062;34.834;2024-03-02T11:02:00;100642.38;;;23.66;42.58
75938;BME280;64615;32.062;34.834;2024-03-02T11:04:27;100646.97;;;23.65;42.42
75938;BME280;64615;32.062;34.834;2024-03-02T11:09:27;100651.59;;;23.64;42.73
75938;BME280;64615;32.062;34.834;2024-03-02T11:12:12;100644.53;;;23.63;42.71
75938;BME280;64615;32.062;34.834;2024-03-02T11:14:41;100651.84;;;23.63;42.72
75938;BME280;64615;32.062;34.834;2024-03-02T11:17:11;100647.22;;;23.58;42.69
75938;BME280;64615;32.062;34.834;2024-03-02T11:19:40;100655.91;;;23.60;43.01
75938;BME280;64615;32.062;34.834;2024-03-02T11:22:06;100653.47;;;23.59;42.81
75938;BME280;64615;32.062;34.834;2024-03-02T11:24:33;100651.28;;;23.61;42.72
75938;BME280;64615;32.062;34.834;2024-03-02T11:27:03;100639.88;;;23.59;42.97
75938;BME280;64615;32.062;34.834;2024-03-02T11:32:13;100637.69;;;23.61;43.12
75938;BME280;64615;32.062;34.834;2024-03-02T11:34:41;100633.09;;;23.61;43.06
75938;BME280;64615;32.062;34.834;2024-03-02T11:37:15;100636.88;;;23.60;42.90
75938;BME280;64615;32.062;34.834;2024-03-02T11:39:42;100618.97;;;23.59;43.02
75938;BME280;64615;32.062;34.834;2024-03-02T11:42:09;100625.22;;;23.60;43.20
75938;BME280;64615;32.062;34.834;2024-03-02T11:44:37;100623.28;;;23.60;42.64
75938;BME280;64615;32.062;34.834;2024-03-02T11:47:08;100623.84;;;23.57;42.33
75938;BME280;64615;32.062;34.834;2024-03-02T11:49:44;100636.09;;;23.60;42.22
75938;BME280;64615;32.062;34.834;2024-03-02T11:52:12;100634.47;;;23.59;42.25
75938;BME280;64615;32.062;34.834;2024-03-02T11:54:40;100635.53;;;23.58;42.31
75938;BME280;64615;32.062;34.834;2024-03-02T11:57:07;100640.16;;;23.57;42.03
75938;BME280;64615;32.062;34.834;2024-03-02T11:59:33;100645.59;;;23.57;42.22
75938;BME280;64615;32.062;34.834;2024-03-02T12:01:59;100654.78;;;23.51;42.66
75938;BME280;64615;32.062;34.834;2024-03-02T12:04:25;100661.31;;;23.50;42.58
75938;BME280;64615;32.062;34.834;2024-03-02T12:06:59;100667.56;;;23.51;42.50
75938;BME280;64615;32.062;34.834;2024-03-02T12:09:28;100658.34;;;23.52;42.27
75938;BME280;64615;32.062;34.834;2024-03-02T12:12:10;100671.91;;;23.52;42.12
75938;BME280;64615;32.062;34.834;2024-03-02T12:14:38;100674.63;;;23.52;42.04
75938;BME280;64615;32.062;34.834;2024-03-02T12:17:05;100676.53;;;23.51;41.61
75938;BME280;64615;32.062;34.834;2024-03-02T12:19:32;100670.56;;;23.49;42.02
75938;BME280;64615;32.062;34.834;2024-03-02T12:21:58;100665.38;;;23.48;42.33
75938;BME280;64615;32.062;34.834;2024-03-02T12:24:27;100658.31;;;23.47;42.21
75938;BME280;64615;32.062;34.834;2024-03-02T12:26:53;100655.84;;;23.45;42.45
75938;BME280;64615;32.062;34.834;2024-03-02T12:29:20;100658.81;;;23.44;42.79
75938;BME280;64615;32.062;34.834;2024-03-02T12:31:49;100642.53;;;23.44;42.68
75938;BME280;64615;32.062;34.834;2024-03-02T12:34:16;100650.94;;;23.42;42.78
75938;BME280;64615;32.062;34.834;2024-03-02T12:36:43;100650.66;;;23.44;42.52
75938;BME280;64615;32.062;34.834;2024-03-02T12:39:09;100634.88;;;23.41;43.03
75938;BME280;64615;32.062;34.834;2024-03-02T12:41:37;100646.81;;;23.40;43.31
75938;BME280;64615;32.062;34.834;2024-03-02T12:44:04;100649.53;;;23.40;42.90
75938;BME280;64615;32.062;34.834;2024-03-02T12:46:30;100650.66;;;23.39;42.82
75938;BME280;64615;32.062;34.834;2024-03-02T12:48:56;100647.94;;;23.39;43.06
75938;BME280;64615;32.062;34.834;2024-03-02T12:51:22;100653.63;;;23.37;43.30